Fort Meade, Maryland
Current Conditions -  °F | °C
As of 10:12 AM on Friday 19 Dec 2014 (Local Time) from KFME Reporting Station
Overcast Overcast  
Wind Chill: 29°   Ceiling: 3300
Heat Index: 36°   Visibility: 10mi
Dew Point: 25°   Wind: 8mph
Humidity: 65%   Direction: 300°WNW
Pressure: 30.19"   Gusts: 16mph
Location:  39.0822°N, 76.7601°W
Report Text: KFME 191512Z AUTO 30007G14KT 10SM OVC033 02/M04 A3019 RMK AO1
Loading
Personal Weather Stations






























Interactive Weather Map New forecast layout! Learn more

10-Day Weather Forecast

Advertisements
Track Severe Weather on mobile